createdAt,value
2019-06-27T00:02:33.236Z,63.32
2019-06-27T00:07:36.595Z,66.25
2019-06-27T00:12:39.973Z,67.12
2019-06-27T00:17:43.403Z,64.93
2019-06-27T00:22:47.035Z,65.85
2019-06-27T00:27:50.382Z,67.37
2019-06-27T00:32:53.810Z,67.85
2019-06-27T00:37:57.222Z,67.29
2019-06-27T00:43:00.578Z,67.36
2019-06-27T00:48:03.956Z,67.02
2019-06-27T00:53:07.355Z,69.90
2019-06-27T00:58:10.940Z,67.93
2019-06-27T01:03:14.475Z,66.80
2019-06-27T01:08:17.816Z,67.13
2019-06-27T01:13:21.255Z,69.33
2019-06-27T01:18:24.770Z,67.68
2019-06-27T01:23:28.141Z,68.02
2019-06-27T01:28:31.488Z,70.15
2019-06-27T01:33:34.881Z,70.89
2019-06-27T01:38:38.491Z,69.71
2019-06-27T01:43:41.826Z,69.48
2019-06-27T01:48:45.283Z,69.32
2019-06-27T01:53:48.801Z,71.65
2019-06-27T01:58:52.135Z,69.07
2019-06-27T02:03:55.485Z,68.33
2019-06-27T02:08:58.903Z,70.18
2019-06-27T02:14:02.367Z,72.00
2019-06-27T02:19:05.774Z,72.11
2019-06-27T02:24:09.289Z,72.09
2019-06-27T02:29:12.657Z,70.20
2019-06-27T02:34:16.129Z,71.50
2019-06-27T02:39:19.555Z,71.92
2019-06-27T02:44:22.908Z,71.11
2019-06-27T02:49:26.271Z,72.35
2019-06-27T02:54:29.725Z,72.50
2019-06-27T02:59:33.093Z,70.20
2019-06-27T03:04:36.485Z,72.20
2019-06-27T03:09:39.992Z,70.54
2019-06-27T03:14:43.377Z,69.16
2019-06-27T03:19:46.758Z,69.16
2019-06-27T03:24:50.117Z,68.80
2019-06-27T03:29:53.599Z,69.90
2019-06-27T03:34:57.022Z,70.23
2019-06-27T03:40:00.355Z,70.52
2019-06-27T03:45:05.935Z,71.51
2019-06-27T03:50:09.488Z,71.02
2019-06-27T03:55:12.945Z,69.80
2019-06-27T04:00:28.425Z,68.74
2019-06-27T04:05:31.822Z,67.46
2019-06-27T04:10:35.220Z,66.50
2019-06-27T04:15:38.602Z,66.10
2019-06-27T04:20:42.134Z,65.93
2019-06-27T04:25:45.458Z,65.84
2019-06-27T04:30:48.856Z,65.85
2019-06-27T04:35:52.181Z,65.85
2019-06-27T04:40:55.620Z,65.74
2019-06-27T04:45:58.993Z,65.58
2019-06-27T04:51:02.365Z,65.52
2019-06-27T04:56:05.711Z,65.56
2019-06-27T05:01:09.145Z,65.43
2019-06-27T05:06:12.479Z,65.21
2019-06-27T05:11:15.994Z,64.93
2019-06-27T05:16:19.356Z,64.81
2019-06-27T05:21:22.717Z,64.35
2019-06-27T05:26:26.150Z,64.06
2019-06-27T05:31:29.644Z,63.68
2019-06-27T05:36:33.088Z,62.63
2019-06-27T05:41:36.397Z,61.98
2019-06-27T05:46:39.761Z,61.58
2019-06-27T05:51:43.219Z,61.20
2019-06-27T05:56:46.618Z,60.93
2019-06-27T06:01:49.999Z,60.50
2019-06-27T06:06:53.467Z,59.73
2019-06-27T06:11:56.906Z,59.33
2019-06-27T06:17:00.326Z,58.16
2019-06-27T06:22:03.693Z,57.81
2019-06-27T06:27:07.166Z,57.55
2019-06-27T06:32:10.725Z,57.28
2019-06-27T06:37:15.236Z,57.01
2019-06-27T06:42:18.607Z,56.57
2019-06-27T06:47:21.963Z,56.36
2019-06-27T06:52:25.432Z,56.11
2019-06-27T06:57:28.793Z,55.89
2019-06-27T07:02:32.244Z,55.08
2019-06-27T07:07:35.611Z,55.04
2019-06-27T07:12:38.979Z,55.34
2019-06-27T07:17:42.343Z,54.54
2019-06-27T07:22:45.689Z,55.03
2019-06-27T07:27:49.040Z,54.58
2019-06-27T07:32:52.445Z,53.91
2019-06-27T07:37:55.900Z,54.24
2019-06-27T07:42:59.253Z,54.16
2019-06-27T07:48:02.677Z,54.79
2019-06-27T07:53:06.065Z,54.03
2019-06-27T07:58:09.457Z,53.85
2019-06-27T08:03:12.800Z,53.56
2019-06-27T08:08:16.236Z,52.82
2019-06-27T08:13:19.650Z,51.83
2019-06-27T08:18:23.321Z,52.43
2019-06-27T08:23:40.558Z,51.80
2019-06-27T08:28:31.958Z,51.81
2019-06-27T08:33:35.331Z,51.06
2019-06-27T08:38:38.672Z,50.74
2019-06-27T08:43:42.126Z,50.32
2019-06-27T08:48:45.544Z,49.19
2019-06-27T08:53:49.183Z,49.64
2019-06-27T08:58:52.584Z,48.59
2019-06-27T09:03:56.081Z,47.84
2019-06-27T09:08:59.490Z,47.61
2019-06-27T09:14:02.831Z,47.40
2019-06-27T09:19:06.235Z,47.57
2019-06-27T09:24:09.789Z,46.72
2019-06-27T09:29:13.269Z,46.21
2019-06-27T09:34:16.705Z,46.15
2019-06-27T09:39:20.180Z,46.19
2019-06-27T09:44:23.871Z,45.53
2019-06-27T09:49:27.246Z,44.60
2019-06-27T09:54:30.760Z,44.83
2019-06-27T09:59:34.217Z,44.33
2019-06-27T10:04:37.767Z,43.90
2019-06-27T10:09:41.124Z,43.78
2019-06-27T10:14:44.486Z,43.90
2019-06-27T10:19:48.008Z,42.57
2019-06-27T10:24:51.407Z,40.56
2019-06-27T10:29:54.783Z,39.92
2019-06-27T10:34:58.225Z,38.75
2019-06-27T10:40:01.695Z,38.93
2019-06-27T10:45:08.434Z,38.30
2019-06-27T10:50:12.353Z,37.48
2019-06-27T10:55:15.795Z,36.73
2019-06-27T11:00:19.395Z,36.73
2019-06-27T11:05:22.820Z,37.99
2019-06-27T11:10:26.198Z,36.39
2019-06-27T11:15:29.568Z,35.81
2019-06-27T11:20:32.982Z,36.83
2019-06-27T11:25:36.314Z,35.76
2019-06-27T11:30:39.806Z,36.00
2019-06-27T11:35:43.141Z,34.46
2019-06-27T11:40:46.583Z,33.61
2019-06-27T11:45:49.999Z,33.94
2019-06-27T11:50:54.304Z,33.95
2019-06-27T11:55:57.692Z,32.35
2019-06-27T12:01:01.078Z,33.04
2019-06-27T12:06:04.463Z,31.93
2019-06-27T12:11:07.804Z,29.31
2019-06-27T12:16:11.157Z,29.80
2019-06-27T12:21:14.542Z,28.75
2019-06-27T12:26:17.897Z,28.56
2019-06-27T12:31:21.533Z,28.20
2019-06-27T12:36:24.933Z,28.41
2019-06-27T12:41:28.275Z,28.70
2019-06-27T12:46:31.625Z,29.07
2019-06-27T12:51:35.059Z,28.59
2019-06-27T12:56:38.377Z,28.25
2019-06-27T13:01:41.733Z,26.65
2019-06-27T13:06:45.233Z,26.92
2019-06-27T13:11:49.439Z,26.65
2019-06-27T13:16:52.765Z,26.48
2019-06-27T13:21:56.129Z,26.00
2019-06-27T13:26:59.486Z,23.35
2019-06-27T13:32:02.920Z,24.39
2019-06-27T13:37:06.265Z,24.87
2019-06-27T13:42:09.671Z,24.82
2019-06-27T13:47:13.027Z,22.85
2019-06-27T13:52:16.385Z,22.66
2019-06-27T13:57:19.756Z,22.92
2019-06-27T14:02:23.155Z,23.67
2019-06-27T14:07:26.504Z,23.99
2019-06-27T14:12:30.435Z,24.66
2019-06-27T14:17:33.822Z,24.66
2019-06-27T14:22:37.153Z,24.03
2019-06-27T14:27:40.473Z,23.44
2019-06-27T14:32:43.898Z,24.32
2019-06-27T14:37:47.367Z,24.50
2019-06-27T14:42:50.800Z,24.25
2019-06-27T14:47:54.133Z,23.44
2019-06-27T14:52:57.483Z,23.79
2019-06-27T14:58:00.856Z,23.44
2019-06-27T15:03:04.278Z,22.90
2019-06-27T15:08:07.700Z,22.46
2019-06-27T15:13:11.064Z,22.15
2019-06-27T15:18:16.774Z,22.43
2019-06-27T15:23:19.689Z,21.88
2019-06-27T15:28:23.526Z,21.64
2019-06-27T15:33:26.864Z,20.13
2019-06-27T15:38:30.352Z,20.44
2019-06-27T15:43:33.681Z,20.31
2019-06-27T15:48:37.322Z,20.29
2019-06-27T15:53:40.746Z,20.40
2019-06-27T15:58:44.119Z,20.83
2019-06-27T16:03:47.440Z,20.72
2019-06-27T16:08:50.836Z,20.40
2019-06-27T16:13:54.251Z,20.06
2019-06-27T16:18:57.581Z,20.06
2019-06-27T16:24:01.021Z,20.37
2019-06-27T16:29:04.356Z,20.59
2019-06-27T16:34:07.719Z,21.60
2019-06-27T16:39:11.114Z,21.67
2019-06-27T16:44:14.471Z,20.82
2019-06-27T16:49:17.809Z,20.48
2019-06-27T16:54:21.187Z,21.31
2019-06-27T16:59:24.481Z,20.67
2019-06-27T17:04:28.024Z,20.30
2019-06-27T17:09:31.371Z,20.82
2019-06-27T17:14:34.695Z,20.69
2019-06-27T17:19:38.202Z,21.10
2019-06-27T17:24:41.547Z,21.33
2019-06-27T17:29:44.873Z,21.29
2019-06-27T17:34:48.302Z,21.13
2019-06-27T17:39:51.664Z,20.97
2019-06-27T17:44:55.088Z,20.67
2019-06-27T17:49:58.528Z,20.96
2019-06-27T17:55:01.972Z,21.05
2019-06-27T18:00:06.557Z,21.25
2019-06-27T18:05:10.256Z,21.32
2019-06-27T18:10:14.065Z,21.62
2019-06-27T18:15:17.662Z,21.16
2019-06-27T18:20:20.990Z,21.32
2019-06-27T18:25:24.338Z,21.08
2019-06-27T18:30:27.676Z,21.32
2019-06-27T18:35:31.058Z,21.02
2019-06-27T18:40:34.482Z,21.24
2019-06-27T18:45:37.821Z,21.71
2019-06-27T18:50:41.274Z,21.80
2019-06-27T18:55:44.671Z,21.76
2019-06-27T19:00:49.126Z,21.87
2019-06-27T19:05:52.575Z,21.93
2019-06-27T19:10:55.908Z,22.42
2019-06-27T19:15:59.407Z,22.78
2019-06-27T19:21:04.382Z,23.03
2019-06-27T19:26:07.872Z,23.80
2019-06-27T19:31:11.256Z,24.93
2019-06-27T19:36:14.588Z,25.75
2019-06-27T19:41:17.963Z,25.89
2019-06-27T19:46:21.331Z,26.74
2019-06-27T19:51:24.743Z,27.13
2019-06-27T19:56:28.151Z,27.66
2019-06-27T20:01:31.556Z,28.35
2019-06-27T20:06:35.004Z,28.45
2019-06-27T20:11:38.275Z,28.78
2019-06-27T20:16:41.622Z,29.28
2019-06-27T20:21:44.966Z,29.45
2019-06-27T20:26:48.312Z,29.89
2019-06-27T20:31:51.664Z,31.11
2019-06-27T20:36:55.084Z,31.78
2019-06-27T20:41:58.576Z,31.52
2019-06-27T20:47:02.006Z,31.41
2019-06-27T20:57:07.746Z,31.93
2019-06-27T21:02:11.085Z,32.34
2019-06-27T21:07:14.482Z,33.07
2019-06-27T21:12:17.872Z,33.15
2019-06-27T21:17:21.197Z,33.20
2019-06-27T21:22:24.540Z,32.76
2019-06-27T21:27:27.905Z,34.55
2019-06-27T21:32:32.140Z,33.64
2019-06-27T21:37:35.871Z,35.36
2019-06-27T21:42:39.301Z,35.13
2019-06-27T21:47:42.683Z,35.60
2019-06-27T21:52:46.053Z,36.24
2019-06-27T21:57:49.411Z,36.66
2019-06-27T22:02:52.746Z,36.72
2019-06-27T22:07:56.071Z,36.69
2019-06-27T22:12:59.472Z,37.33
2019-06-27T22:18:02.931Z,37.53
2019-06-27T22:23:06.252Z,38.29
2019-06-27T22:28:09.585Z,38.56
2019-06-27T22:33:12.985Z,38.84
2019-06-27T22:38:34.376Z,38.88
2019-06-27T22:43:55.640Z,39.22
2019-06-27T22:48:59.569Z,39.10
2019-06-27T22:54:04.556Z,39.25
2019-06-27T22:59:07.892Z,39.51
2019-06-27T23:04:11.326Z,39.59
2019-06-27T23:09:14.704Z,40.98
2019-06-27T23:14:18.113Z,41.84
2019-06-27T23:19:21.447Z,43.28
2019-06-27T23:24:24.823Z,42.87
2019-06-27T23:29:28.349Z,42.17
2019-06-27T23:34:31.711Z,42.67
2019-06-27T23:39:35.199Z,43.67
2019-06-27T23:44:38.975Z,43.14
2019-06-27T23:49:42.428Z,42.16
2019-06-27T23:54:45.964Z,43.91
2019-06-27T23:59:49.372Z,43.68
